Time;durP1;ratioP1;P1;durP2;ratioP2;P2;SDS_P1;SDS_P2;PMS_P1;PMS_P2;Temp;Humidity;BMP_temperature;BMP_pressure;BME280_temperature;BME280_humidity;BME280_pressure;Samples;Min_cycle;Max_cycle;Signal;HPM_P1;HPM_P2
2022/03/30 00:01:32;;;;;;;22.03;14.63;;;12.50;66.50;;;;;;5014260;28;20538;-50
2022/03/30 00:03:59;;;;;;;20.93;16.70;;;12.50;67.00;;;;;;5014266;28;20450;-50
2022/03/30 00:06:27;;;;;;;20.80;16.43;;;12.60;67.10;;;;;;5014501;28;20458;-50
2022/03/30 00:08:54;;;;;;;23.00;17.13;;;12.70;66.20;;;;;;5014180;28;20497;-51
2022/03/30 00:11:22;;;;;;;25.70;17.47;;;12.60;66.20;;;;;;5014358;28;20427;-51
2022/03/30 00:13:49;;;;;;;24.83;15.17;;;12.60;67.50;;;;;;5014331;28;20546;-51
2022/03/30 00:16:17;;;;;;;19.53;14.57;;;12.60;67.10;;;;;;5014280;28;20458;-50
2022/03/30 00:18:45;;;;;;;23.17;14.70;;;12.60;66.30;;;;;;5014192;28;20478;-50
2022/03/30 00:21:13;;;;;;;26.20;16.23;;;12.50;66.40;;;;;;5014303;28;20545;-51
2022/03/30 00:23:40;;;;;;;25.23;18.33;;;12.40;66.90;;;;;;5014173;28;20447;-50
2022/03/30 00:26:08;;;;;;;18.73;15.07;;;12.40;66.90;;;;;;5013802;28;20455;-50
2022/03/30 00:28:35;;;;;;;25.77;16.37;;;12.40;67.00;;;;;;5013754;28;20496;-50
2022/03/30 00:31:02;;;;;;;19.43;15.80;;;12.40;67.40;;;;;;5014127;28;20844;-50
2022/03/30 00:33:31;;;;;;;24.00;15.50;;;12.40;67.40;;;;;;5014064;28;20450;-50
2022/03/30 00:35:58;;;;;;;28.03;16.57;;;12.50;67.10;;;;;;5014030;28;20483;-50
2022/03/30 00:38:25;;;;;;;24.40;17.07;;;12.60;66.10;;;;;;5014198;28;20483;-50
2022/03/30 00:40:53;;;;;;;23.23;16.93;;;12.60;66.00;;;;;;5013114;28;20474;-50
2022/03/30 00:43:20;;;;;;;24.20;16.17;;;12.70;65.70;;;;;;5013638;28;20526;-50
2022/03/30 00:45:47;;;;;;;24.57;15.60;;;12.70;65.90;;;;;;5014031;28;20478;-51
2022/03/30 00:48:14;;;;;;;23.63;15.87;;;12.80;65.80;;;;;;5013572;28;20475;-51
2022/03/30 00:50:43;;;;;;;25.93;16.30;;;12.90;67.00;;;;;;5013795;28;20494;-50
2022/03/30 00:53:10;;;;;;;20.77;14.90;;;12.90;67.20;;;;;;5013601;28;20455;-50
2022/03/30 00:55:37;;;;;;;22.97;16.00;;;12.90;67.60;;;;;;5013391;28;20482;-50
2022/03/30 00:58:06;;;;;;;20.97;15.77;;;12.90;67.60;;;;;;5013646;28;20905;-51
2022/03/30 01:00:33;;;;;;;27.37;17.10;;;13.00;67.50;;;;;;5013482;28;20938;-51
2022/03/30 01:03:00;;;;;;;24.40;15.30;;;12.70;67.40;;;;;;5013707;28;20455;-50
2022/03/30 01:05:27;;;;;;;23.40;17.03;;;12.70;67.70;;;;;;5013659;28;20447;-51
2022/03/30 01:07:59;;;;;;;25.60;16.33;;;12.80;68.10;;;;;;5013939;28;20485;-51
2022/03/30 01:10:26;;;;;;;26.93;16.90;;;12.70;68.80;;;;;;5013291;28;20483;-51
2022/03/30 01:12:54;;;;;;;24.90;16.47;;;12.80;70.50;;;;;;5013606;28;20455;-51
2022/03/30 01:15:23;;;;;;;27.73;17.40;;;12.80;70.00;;;;;;5013217;28;20479;-50
2022/03/30 01:17:50;;;;;;;21.23;16.73;;;12.90;69.80;;;;;;5013723;28;20563;-50
2022/03/30 01:20:21;;;;;;;26.23;16.10;;;12.90;69.50;;;;;;5013525;28;20451;-50
2022/03/30 01:22:50;;;;;;;22.70;16.80;;;12.80;69.10;;;;;;5013255;28;20852;-51
2022/03/30 01:25:18;;;;;;;23.23;16.47;;;12.80;69.10;;;;;;5013239;28;20451;-50
2022/03/30 01:27:45;;;;;;;21.23;16.40;;;12.80;69.00;;;;;;5013295;28;20471;-50
2022/03/30 01:33:00;;;;;;;24.80;15.57;;;12.90;69.40;;;;;;5013250;28;20769;-50
2022/03/30 01:35:27;;;;;;;24.77;16.30;;;13.00;68.70;;;;;;5013428;28;20509;-50
2022/03/30 01:37:56;;;;;;;18.27;14.90;;;12.90;68.00;;;;;;5013436;28;20868;-50
2022/03/30 01:40:23;;;;;;;26.03;18.83;;;12.80;67.00;;;;;;5013483;28;20835;-50
2022/03/30 01:42:51;;;;;;;23.37;16.73;;;12.90;66.50;;;;;;5013650;28;20451;-50
2022/03/30 01:45:18;;;;;;;20.30;15.47;;;12.90;66.70;;;;;;5013081;28;20443;-51
2022/03/30 01:47:52;;;;;;;23.10;14.27;;;12.80;66.90;;;;;;5013295;28;20793;-50
2022/03/30 01:50:19;;;;;;;28.37;16.43;;;12.90;68.50;;;;;;5013212;28;20447;-50
2022/03/30 01:52:47;;;;;;;21.87;15.70;;;13.00;69.60;;;;;;5014419;28;20451;-50
2022/03/30 01:55:15;;;;;;;21.77;15.87;;;13.00;68.90;;;;;;5016902;28;20505;-50
2022/03/30 01:57:43;;;;;;;18.53;14.50;;;13.00;69.10;;;;;;5016791;28;20471;-50
2022/03/30 02:00:12;;;;;;;25.57;16.33;;;13.00;70.00;;;;;;5016674;28;20549;-50
2022/03/30 02:02:40;;;;;;;21.67;16.77;;;12.90;69.80;;;;;;5016521;28;20451;-50
2022/03/30 02:05:09;;;;;;;18.73;15.20;;;13.00;70.00;;;;;;5016455;28;20948;-50
2022/03/30 02:07:36;;;;;;;22.63;16.27;;;12.90;70.20;;;;;;5016832;28;20995;-50
2022/03/30 02:10:06;;;;;;;23.20;14.83;;;12.80;70.40;;;;;;5016661;28;20581;-50
2022/03/30 02:12:39;;;;;;;21.57;15.67;;;12.80;71.80;;;;;;5016648;28;20441;-50
2022/03/30 02:15:07;;;;;;;24.07;16.20;;;12.80;71.10;;;;;;5016257;28;20495;-50
2022/03/30 02:17:34;;;;;;;22.23;16.63;;;12.80;70.40;;;;;;5016650;28;20470;-50
2022/03/30 02:20:02;;;;;;;26.37;15.90;;;12.80;70.70;;;;;;5016494;28;20454;-50
2022/03/30 02:22:29;;;;;;;21.97;16.10;;;12.80;70.00;;;;;;5016458;28;20801;-50
2022/03/30 02:24:56;;;;;;;24.40;16.97;;;12.90;70.50;;;;;;5016534;28;20443;-50
2022/03/30 02:27:24;;;;;;;20.43;16.07;;;12.90;71.30;;;;;;5016124;28;20470;-50
2022/03/30 02:29:54;;;;;;;25.30;16.20;;;12.90;71.30;;;;;;5016415;28;20477;-50
2022/03/30 02:32:21;;;;;;;24.10;16.10;;;12.80;71.60;;;;;;5016679;28;20435;-50
2022/03/30 02:34:48;;;;;;;24.37;15.70;;;12.80;71.60;;;;;;5016210;28;20479;-50
2022/03/30 02:37:16;;;;;;;23.50;15.00;;;12.80;71.60;;;;;;5016003;28;20485;-50
2022/03/30 02:39:43;;;;;;;23.30;15.43;;;12.80;71.60;;;;;;5016227;28;20455;-50
2022/03/30 02:42:10;;;;;;;25.80;15.60;;;12.80;71.60;;;;;;5016234;28;20454;-50
2022/03/30 02:44:38;;;;;;;24.83;15.57;;;12.70;71.90;;;;;;5016177;28;20447;-50
2022/03/30 02:47:08;;;;;;;30.33;15.53;;;12.70;72.70;;;;;;5016009;28;20471;-50
2022/03/30 02:49:36;;;;;;;20.67;15.00;;;12.80;73.30;;;;;;5015780;28;20454;-50
2022/03/30 02:52:03;;;;;;;22.30;14.17;;;12.90;72.90;;;;;;5015952;28;20455;-50
2022/03/30 02:54:30;;;;;;;25.97;17.23;;;12.80;73.40;;;;;;5015757;28;20457;-50
2022/03/30 02:56:58;;;;;;;28.03;14.90;;;12.70;73.10;;;;;;5015524;28;20471;-50
2022/03/30 02:59:25;;;;;;;23.60;15.70;;;12.70;73.60;;;;;;5015616;28;20451;-50
2022/03/30 03:01:54;;;;;;;19.50;14.90;;;12.60;73.80;;;;;;5015401;28;20547;-50
2022/03/30 03:04:23;;;;;;;24.13;16.73;;;12.70;74.70;;;;;;5015301;28;20447;-50
2022/03/30 03:06:50;;;;;;;26.13;14.70;;;12.70;75.00;;;;;;5015340;28;20809;-50
2022/03/30 03:09:18;;;;;;;18.00;14.70;;;12.70;75.40;;;;;;5015145;28;20490;-50
2022/03/30 03:11:45;;;;;;;20.80;13.97;;;12.70;75.80;;;;;;5015591;28;20451;-50
2022/03/30 03:14:13;;;;;;;28.70;15.20;;;12.70;76.30;;;;;;5015159;28;20964;-50
2022/03/30 03:16:40;;;;;;;25.47;15.63;;;12.60;74.80;;;;;;5015258;28;20486;-50
2022/03/30 03:19:07;;;;;;;23.60;15.30;;;12.60;75.10;;;;;;5015179;28;20454;-50
2022/03/30 03:21:35;;;;;;;18.83;14.80;;;12.50;75.40;;;;;;5015512;28;20522;-50
2022/03/30 03:24:03;;;;;;;19.90;14.67;;;12.50;76.60;;;;;;5015087;28;20952;-50
2022/03/30 03:26:30;;;;;;;18.97;14.80;;;12.60;76.30;;;;;;5015285;28;20443;-50
2022/03/30 03:28:57;;;;;;;19.83;14.40;;;12.70;76.70;;;;;;5014834;28;20471;-50
2022/03/30 03:31:24;;;;;;;21.33;15.67;;;12.60;76.60;;;;;;5014830;28;20462;-50
2022/03/30 03:33:53;;;;;;;23.67;14.37;;;12.50;76.80;;;;;;5015089;28;20447;-50
2022/03/30 03:36:20;;;;;;;22.47;16.40;;;12.60;76.30;;;;;;5015076;28;20880;-50
2022/03/30 03:38:48;;;;;;;22.50;13.30;;;12.40;76.30;;;;;;5014985;28;20463;-50
2022/03/30 03:41:16;;;;;;;23.60;14.90;;;12.40;82.80;;;;;;5014945;28;20447;-50
2022/03/30 03:43:43;;;;;;;25.00;16.80;;;12.40;81.70;;;;;;5014732;28;20451;-50
2022/03/30 03:46:10;;;;;;;26.80;15.40;;;12.40;76.50;;;;;;5014883;28;20472;-50
2022/03/30 03:48:37;;;;;;;21.67;13.90;;;12.40;76.10;;;;;;5014819;28;20562;-50
2022/03/30 03:51:04;;;;;;;19.73;13.60;;;12.50;75.70;;;;;;5014642;28;21014;-50
2022/03/30 03:53:34;;;;;;;23.70;13.20;;;12.60;77.20;;;;;;5014825;28;20866;-50
2022/03/30 03:56:03;;;;;;;21.80;14.17;;;12.70;78.00;;;;;;5014263;28;20483;-50
2022/03/30 03:58:30;;;;;;;18.73;14.30;;;12.70;76.60;;;;;;5014717;28;20592;-50
2022/03/30 04:00:58;;;;;;;21.80;15.53;;;12.70;76.40;;;;;;5014740;28;20534;-50
2022/03/30 04:03:25;;;;;;;24.03;16.30;;;12.70;76.90;;;;;;5014263;28;20957;-50
2022/03/30 04:05:52;;;;;;;20.00;14.80;;;12.60;76.90;;;;;;5014658;28;20538;-50
2022/03/30 04:08:20;;;;;;;18.17;14.30;;;12.70;77.60;;;;;;5014690;28;20475;-50
2022/03/30 04:10:51;;;;;;;23.20;15.80;;;12.70;76.40;;;;;;5013896;28;20486;-50
2022/03/30 04:13:20;;;;;;;26.83;16.30;;;12.70;77.10;;;;;;5014174;28;20451;-51
2022/03/30 04:15:47;;;;;;;24.13;14.73;;;12.70;78.30;;;;;;5013778;28;20872;-50
2022/03/30 04:18:14;;;;;;;23.90;16.97;;;12.70;77.90;;;;;;5013985;28;20915;-50
2022/03/30 04:20:44;;;;;;;31.20;15.80;;;12.80;77.00;;;;;;5014217;28;20447;-50
2022/03/30 04:23:11;;;;;;;19.73;14.33;;;12.70;77.30;;;;;;5014520;28;20451;-50
2022/03/30 04:25:38;;;;;;;25.40;15.93;;;12.60;74.80;;;;;;5013886;28;20451;-50
2022/03/30 04:28:06;;;;;;;25.00;16.47;;;12.70;76.40;;;;;;5013730;28;20567;-50
2022/03/30 04:30:35;;;;;;;22.80;14.50;;;12.70;75.50;;;;;;5014342;28;20472;-50
2022/03/30 04:33:03;;;;;;;24.00;14.87;;;12.80;75.00;;;;;;5014082;28;20454;-50
2022/03/30 04:35:30;;;;;;;26.83;15.40;;;12.70;75.90;;;;;;5013795;28;20483;-50
2022/03/30 04:37:58;;;;;;;24.70;14.63;;;12.50;75.30;;;;;;5014088;28;20983;-50
2022/03/30 04:40:26;;;;;;;23.80;14.60;;;12.50;76.20;;;;;;5013754;28;20813;-50
2022/03/30 04:42:53;;;;;;;22.63;14.73;;;12.40;78.50;;;;;;5013901;28;20477;-50
2022/03/30 04:45:21;;;;;;;24.37;14.37;;;12.40;79.70;;;;;;5013722;28;20934;-50
2022/03/30 04:47:51;;;;;;;28.43;15.40;;;12.40;84.30;;;;;;5013596;28;20471;-50
2022/03/30 04:50:18;;;;;;;19.70;13.23;;;12.30;87.70;;;;;;5013949;28;20451;-50
2022/03/30 04:52:45;;;;;;;20.17;12.93;;;12.10;90.30;;;;;;5013680;28;20449;-50
2022/03/30 04:55:13;;;;;;;18.30;12.23;;;11.90;90.20;;;;;;5013487;28;20945;-50
2022/03/30 04:57:41;;;;;;;20.40;13.47;;;11.80;92.20;;;;;;5013871;28;20530;-50
2022/03/30 05:00:10;;;;;;;21.10;14.83;;;11.70;93.60;;;;;;5013800;28;20802;-50
2022/03/30 05:02:38;;;;;;;24.13;15.80;;;11.40;94.60;;;;;;5013479;28;20808;-50
2022/03/30 05:05:08;;;;;;;22.10;13.90;;;11.20;96.30;;;;;;5013632;28;20816;-50
2022/03/30 05:07:35;;;;;;;24.70;13.60;;;11.20;97.10;;;;;;5013482;28;21036;-51
2022/03/30 05:10:03;;;;;;;20.03;13.40;;;11.10;98.90;;;;;;5013105;28;20973;-51
2022/03/30 05:12:30;;;;;;;24.30;13.70;;;11.10;99.90;;;;;;5013267;28;20439;-51
2022/03/30 05:14:57;;;;;;;26.13;14.27;;;11.00;99.90;;;;;;5013467;28;20448;-51
2022/03/30 05:17:24;;;;;;;20.20;14.43;;;10.90;99.90;;;;;;5013273;28;20490;-50
2022/03/30 05:19:51;;;;;;;19.07;11.67;;;10.80;99.90;;;;;;5013195;28;20948;-51
2022/03/30 05:22:20;;;;;;;27.77;15.33;;;10.70;99.90;;;;;;5013210;28;20447;-51
2022/03/30 05:24:47;;;;;;;21.90;13.50;;;10.70;99.90;;;;;;5013128;28;20819;-50
2022/03/30 05:27:14;;;;;;;17.43;13.20;;;10.70;99.90;;;;;;5014938;28;20463;-50
2022/03/30 05:29:41;;;;;;;30.03;13.83;;;10.70;99.90;;;;;;5016882;28;20451;-51
2022/03/30 05:32:09;;;;;;;25.07;13.00;;;10.60;99.90;;;;;;5016445;28;20458;-50
2022/03/30 05:34:36;;;;;;;25.90;13.73;;;10.50;99.90;;;;;;5017111;28;20455;-51
2022/03/30 05:37:03;;;;;;;19.93;13.40;;;10.60;99.90;;;;;;5017124;28;20585;-50
2022/03/30 05:39:32;;;;;;;26.10;14.13;;;10.60;99.90;;;;;;5017159;28;20451;-51
2022/03/30 05:41:59;;;;;;;22.20;13.73;;;10.60;99.90;;;;;;5017018;28;20451;-51
2022/03/30 05:44:26;;;;;;;24.13;13.73;;;10.50;99.90;;;;;;5016967;28;20553;-51
2022/03/30 05:46:53;;;;;;;25.63;14.20;;;10.50;99.90;;;;;;5016574;28;20443;-51
2022/03/30 05:49:20;;;;;;;24.60;14.27;;;10.50;99.90;;;;;;5016876;28;20447;-51
2022/03/30 05:51:47;;;;;;;22.60;13.17;;;10.40;99.90;;;;;;5016858;28;20805;-51
2022/03/30 05:54:14;;;;;;;18.40;14.40;;;10.40;99.90;;;;;;5016573;28;20545;-50
2022/03/30 05:57:01;;;;;;;22.77;14.20;;;10.30;99.90;;;;;;5016399;28;20479;-51
2022/03/30 05:59:30;;;;;;;25.40;14.53;;;10.40;99.90;;;;;;5016914;28;20440;-51
2022/03/30 06:01:58;;;;;;;22.40;13.80;;;10.40;99.90;;;;;;5016310;28;21008;-51
2022/03/30 06:04:27;;;;;;;19.10;12.60;;;10.40;99.90;;;;;;5016340;28;20811;-51
2022/03/30 06:06:54;;;;;;;18.03;13.00;;;10.60;99.90;;;;;;5016371;28;20477;-51
2022/03/30 06:09:22;;;;;;;23.17;13.50;;;10.50;99.90;;;;;;5016230;28;20909;-51
2022/03/30 06:11:50;;;;;;;16.30;13.20;;;10.50;99.90;;;;;;5016080;28;20435;-50
2022/03/30 06:14:18;;;;;;;23.70;12.77;;;10.50;99.90;;;;;;5016122;28;21028;-50
2022/03/30 06:16:46;;;;;;;21.50;11.63;;;10.60;99.90;;;;;;5016460;28;20479;-50
2022/03/30 06:19:14;;;;;;;19.93;12.33;;;10.50;99.90;;;;;;5016480;28;20451;-50
2022/03/30 06:21:42;;;;;;;23.27;12.07;;;10.50;99.90;;;;;;5015806;28;20454;-50
2022/03/30 06:24:10;;;;;;;28.47;12.97;;;10.60;99.90;;;;;;5016038;28;20454;-50
2022/03/30 06:26:38;;;;;;;22.50;12.93;;;10.70;99.90;;;;;;5015797;28;20952;-50
2022/03/30 06:29:06;;;;;;;25.57;14.90;;;10.70;99.90;;;;;;5016327;28;20896;-50
2022/03/30 06:31:34;;;;;;;25.43;14.17;;;10.60;99.90;;;;;;5016443;28;20454;-50
2022/03/30 06:34:02;;;;;;;22.10;13.00;;;10.70;99.90;;;;;;5016192;28;20846;-50
2022/03/30 06:36:29;;;;;;;17.20;11.63;;;10.60;99.90;;;;;;5015704;28;20481;-50
2022/03/30 06:38:57;;;;;;;23.93;13.63;;;10.70;99.90;;;;;;5014780;28;20463;-50
2022/03/30 06:41:24;;;;;;;25.43;13.20;;;10.90;99.90;;;;;;5015923;28;20521;-50
2022/03/30 06:43:52;;;;;;;26.47;14.23;;;10.80;99.90;;;;;;5015402;28;20447;-50
2022/03/30 06:46:21;;;;;;;25.67;13.07;;;10.80;99.90;;;;;;5015492;28;20449;-50
2022/03/30 06:48:48;;;;;;;23.23;13.97;;;10.80;99.90;;;;;;5015806;28;20497;-50
2022/03/30 06:51:16;;;;;;;16.07;12.70;;;10.70;99.90;;;;;;5015743;28;20844;-50
2022/03/30 06:53:43;;;;;;;19.23;13.07;;;10.70;99.90;;;;;;5015365;28;20534;-50
2022/03/30 06:56:11;;;;;;;18.83;12.10;;;10.80;99.90;;;;;;5015814;28;20482;-50
2022/03/30 06:58:38;;;;;;;22.50;13.70;;;10.80;99.90;;;;;;5015142;28;20911;-50
2022/03/30 07:01:05;;;;;;;19.43;13.07;;;10.90;99.90;;;;;;5015258;28;20457;-50
2022/03/30 07:03:33;;;;;;;25.97;14.17;;;10.90;99.90;;;;;;5015368;28;20848;-50
2022/03/30 07:06:03;;;;;;;21.23;12.77;;;10.80;99.90;;;;;;5015474;28;20789;-50
2022/03/30 07:11:14;;;;;;;17.37;14.33;;;10.90;99.90;;;;;;5015134;28;20784;-50
2022/03/30 07:13:42;;;;;;;21.93;13.10;;;10.90;99.90;;;;;;5015395;28;20439;-50
2022/03/30 07:16:09;;;;;;;23.93;14.60;;;11.00;99.90;;;;;;5015155;28;20811;-50
2022/03/30 07:18:39;;;;;;;23.23;13.10;;;11.00;99.90;;;;;;5014774;28;20986;-50
2022/03/30 07:21:06;;;;;;;17.87;13.17;;;11.00;99.90;;;;;;5015056;28;20451;-50
2022/03/30 07:23:33;;;;;;;24.30;13.53;;;11.10;99.90;;;;;;5014953;28;20485;-50
2022/03/30 07:26:00;;;;;;;20.43;13.70;;;11.10;99.90;;;;;;5014952;28;20473;-50
2022/03/30 07:28:28;;;;;;;24.53;12.27;;;11.10;99.90;;;;;;5014629;28;20549;-49
2022/03/30 07:30:55;;;;;;;20.90;13.10;;;11.10;99.90;;;;;;5014819;28;20490;-50
2022/03/30 07:33:23;;;;;;;30.93;14.77;;;11.10;99.90;;;;;;5014256;28;20455;-49
2022/03/30 07:35:52;;;;;;;23.57;14.53;;;11.10;99.90;;;;;;5014203;28;20454;-49
2022/03/30 07:38:21;;;;;;;30.10;15.13;;;11.00;99.90;;;;;;5014819;28;20494;-50
2022/03/30 07:40:50;;;;;;;24.83;13.90;;;11.00;99.90;;;;;;5014695;28;20630;-49
2022/03/30 07:43:19;;;;;;;26.60;14.57;;;11.10;99.90;;;;;;5014362;28;20443;-50
2022/03/30 07:45:46;;;;;;;33.73;14.60;;;11.10;99.90;;;;;;5014419;28;20435;-50
2022/03/30 07:48:14;;;;;;;20.80;13.37;;;11.10;99.90;;;;;;5014494;28;20558;-50
2022/03/30 07:50:41;;;;;;;32.47;14.07;;;11.10;99.90;;;;;;5014139;28;20792;-49
2022/03/30 07:53:10;;;;;;;27.50;15.00;;;11.10;99.90;;;;;;5013887;28;21029;-49
2022/03/30 07:55:39;;;;;;;24.20;15.07;;;11.10;99.90;;;;;;5014376;28;20542;-49
2022/03/30 07:58:06;;;;;;;32.87;15.77;;;11.10;99.90;;;;;;5014117;28;20572;-50
2022/03/30 08:00:34;;;;;;;30.97;13.93;;;11.00;99.90;;;;;;5014328;28;20459;-50
2022/03/30 08:03:03;;;;;;;25.00;14.73;;;11.10;99.90;;;;;;5014209;28;20482;-50
2022/03/30 08:05:30;;;;;;;24.30;15.00;;;11.10;99.90;;;;;;5014346;28;20463;-50
2022/03/30 08:07:57;;;;;;;25.97;13.33;;;11.10;99.90;;;;;;5014285;28;20478;-53
2022/03/30 08:10:28;;;;;;;18.97;14.93;;;11.10;99.90;;;;;;5013931;28;20804;-50
2022/03/30 08:12:55;;;;;;;24.97;13.90;;;11.20;99.90;;;;;;5013952;28;20890;-51
2022/03/30 08:15:23;;;;;;;28.97;14.53;;;11.20;99.90;;;;;;5014122;28;20870;-49
2022/03/30 08:17:51;;;;;;;18.40;13.00;;;11.10;99.90;;;;;;5014057;28;20497;-49
2022/03/30 08:23:04;;;;;;;23.27;14.60;;;11.10;99.90;;;;;;5013756;28;20414;-50
2022/03/30 08:25:33;;;;;;;29.67;15.80;;;11.30;99.90;;;;;;5013606;28;20947;-50
2022/03/30 08:28:01;;;;;;;26.33;13.07;;;11.30;99.90;;;;;;5013538;28;20895;-50
2022/03/30 08:30:29;;;;;;;26.10;13.10;;;11.20;99.90;;;;;;5013466;28;20968;-50
2022/03/30 08:32:56;;;;;;;26.13;14.77;;;11.20;99.90;;;;;;5013802;28;20525;-50
2022/03/30 08:35:25;;;;;;;25.93;13.43;;;11.20;99.90;;;;;;5013849;28;20871;-50
2022/03/30 08:37:52;;;;;;;30.07;13.37;;;11.20;99.90;;;;;;5014536;28;20518;-49
2022/03/30 08:40:20;;;;;;;18.93;12.97;;;11.30;99.90;;;;;;5013437;28;20653;-50
2022/03/30 08:42:49;;;;;;;26.23;13.90;;;11.20;99.90;;;;;;5013749;28;20454;-49
2022/03/30 08:45:16;;;;;;;17.33;12.50;;;11.30;99.90;;;;;;5014076;28;20462;-50
2022/03/30 08:47:43;;;;;;;18.80;11.13;;;11.30;99.90;;;;;;5013255;28;20467;-50
2022/03/30 08:50:11;;;;;;;23.53;14.13;;;11.30;99.90;;;;;;5013698;28;20804;-50
2022/03/30 08:52:38;;;;;;;21.90;12.70;;;11.20;99.90;;;;;;5013897;28;20478;-50
2022/03/30 08:55:06;;;;;;;24.20;14.00;;;11.20;99.90;;;;;;5013314;28;20447;-50
2022/03/30 08:57:33;;;;;;;24.50;13.07;;;11.10;99.90;;;;;;5013471;28;20491;-50
2022/03/30 09:00:06;;;;;;;21.53;14.90;;;11.20;99.90;;;;;;5013493;28;20447;-50
2022/03/30 09:02:37;;;;;;;24.47;12.93;;;11.20;99.90;;;;;;5012844;28;20501;-50
2022/03/30 09:05:13;;;;;;;24.13;11.63;;;11.10;99.90;;;;;;5013572;28;20493;-50
2022/03/30 09:07:41;;;;;;;20.93;12.93;;;11.10;99.90;;;;;;5013528;28;20478;-50
2022/03/30 09:10:14;;;;;;;23.03;11.80;;;11.10;99.90;;;;;;5013220;28;20474;-49
2022/03/30 09:12:43;;;;;;;15.50;10.97;;;11.20;99.90;;;;;;5013542;28;20435;-50
2022/03/30 09:15:13;;;;;;;28.07;12.13;;;11.10;99.90;;;;;;5013390;28;20542;-50
2022/03/30 09:17:41;;;;;;;25.30;12.30;;;11.10;99.90;;;;;;5012997;28;20486;-50
2022/03/30 09:20:14;;;;;;;24.30;11.53;;;11.00;99.90;;;;;;5013254;28;20479;-50
2022/03/30 09:22:44;;;;;;;23.97;11.90;;;11.00;99.90;;;;;;5013133;28;20431;-49
2022/03/30 09:25:12;;;;;;;20.10;12.63;;;11.10;99.90;;;;;;5012741;28;20451;-49
2022/03/30 09:27:41;;;;;;;19.20;11.80;;;11.30;99.90;;;;;;5013239;28;20471;-50
2022/03/30 09:30:14;;;;;;;22.23;11.83;;;11.30;99.90;;;;;;5012659;28;20451;-50
2022/03/30 09:32:43;;;;;;;15.83;11.70;;;11.40;99.90;;;;;;5013126;28;20459;-50
2022/03/30 09:35:24;;;;;;;22.70;11.67;;;11.40;99.90;;;;;;5012699;28;20453;-50
2022/03/30 09:38:11;;;;;;;19.47;11.87;;;11.40;99.90;;;;;;5012841;28;20564;-50
2022/03/30 09:40:42;;;;;;;14.87;9.97;;;11.40;99.90;;;;;;5013020;28;20435;-50
2022/03/30 09:43:21;;;;;;;20.33;11.00;;;11.50;99.90;;;;;;5012837;28;20434;-50
2022/03/30 09:45:51;;;;;;;20.30;10.37;;;11.50;99.90;;;;;;5012858;28;20518;-50
2022/03/30 09:48:27;;;;;;;18.30;11.37;;;11.40;99.90;;;;;;5013059;28;20455;-50
2022/03/30 09:50:56;;;;;;;18.20;11.73;;;11.40;99.90;;;;;;5012603;28;20431;-50
2022/03/30 09:53:24;;;;;;;19.07;12.57;;;11.40;99.90;;;;;;5012549;28;20447;-50
2022/03/30 09:56:01;;;;;;;15.90;10.87;;;11.50;99.90;;;;;;5012646;28;20446;-50
2022/03/30 09:58:30;;;;;;;20.03;11.30;;;11.50;99.90;;;;;;5012781;28;20514;-50
2022/03/30 10:01:11;;;;;;;17.60;12.90;;;11.50;99.90;;;;;;5012933;28;20540;-50
2022/03/30 10:03:41;;;;;;;15.00;10.97;;;11.40;99.90;;;;;;5012590;28;20505;-50
2022/03/30 10:06:10;;;;;;;17.70;11.50;;;11.50;99.90;;;;;;5013004;28;20427;-50
2022/03/30 10:08:38;;;;;;;20.00;10.20;;;11.40;99.90;;;;;;5013121;28;20478;-49
2022/03/30 10:11:05;;;;;;;20.10;11.43;;;11.30;99.90;;;;;;5011189;28;20585;-50
2022/03/30 10:13:32;;;;;;;19.20;13.00;;;11.30;99.90;;;;;;5013148;28;20447;-50
2022/03/30 10:16:00;;;;;;;26.00;10.77;;;11.20;99.90;;;;;;5016431;28;20502;-50
2022/03/30 10:18:32;;;;;;;17.77;10.40;;;11.30;99.90;;;;;;5015765;28;20577;-50
2022/03/30 10:21:16;;;;;;;18.63;10.53;;;11.60;99.90;;;;;;5015888;28;20487;-50
2022/03/30 10:24:20;;;;;;;19.47;11.10;;;11.80;99.90;;;;;;5015820;28;20431;-50
2022/03/30 10:26:56;;;;;;;18.73;11.17;;;11.90;99.90;;;;;;5005444;28;20462;-50
2022/03/30 10:29:26;;;;;;;18.07;12.20;;;11.90;99.90;;;;;;5015771;28;20438;-50
2022/03/30 10:32:15;;;;;;;17.00;11.53;;;12.00;99.90;;;;;;5015997;28;20453;-50
2022/03/30 10:35:00;;;;;;;22.53;10.50;;;12.00;99.90;;;;;;5012812;28;20975;-50
2022/03/30 10:37:30;;;;;;;14.33;10.20;;;12.20;99.90;;;;;;5015675;28;20516;-50
2022/03/30 10:40:06;;;;;;;20.53;11.00;;;12.40;99.90;;;;;;5015787;28;20452;-50
2022/03/30 10:42:59;;;;;;;13.97;10.13;;;12.70;99.90;;;;;;5015654;28;20430;-50
2022/03/30 10:45:30;;;;;;;13.70;9.97;;;12.80;99.90;;;;;;5010031;28;20458;-52
2022/03/30 10:48:08;;;;;;;19.20;10.83;;;12.90;99.90;;;;;;5015673;28;20455;-51
2022/03/30 10:50:40;;;;;;;14.20;10.30;;;12.80;99.90;;;;;;5015789;28;20461;-48
2022/03/30 10:53:49;;;;;;;20.47;11.50;;;12.70;99.90;;;;;;5015811;28;20438;-50
2022/03/30 10:56:38;;;;;;;17.30;10.77;;;12.60;99.90;;;;;;4980525;28;20466;-52
2022/03/30 10:59:10;;;;;;;18.73;10.90;;;12.60;99.90;;;;;;5015463;28;20467;-52
2022/03/30 11:01:41;;;;;;;22.80;12.23;;;12.50;99.90;;;;;;5016007;28;20447;-52
2022/03/30 11:04:20;;;;;;;19.27;10.23;;;12.50;99.90;;;;;;5015778;28;20442;-52
2022/03/30 11:07:38;;;;;;;14.17;11.73;;;12.40;99.90;;;;;;5016127;28;20454;-52
2022/03/30 11:10:27;;;;;;;16.73;11.27;;;12.30;99.90;;;;;;5015260;28;20479;-53
2022/03/30 11:13:03;;;;;;;20.20;11.37;;;12.30;99.90;;;;;;5015243;28;20467;-52
2022/03/30 11:15:31;;;;;;;18.30;11.70;;;12.30;99.90;;;;;;5016366;28;20427;-52
2022/03/30 11:18:17;;;;;;;18.57;11.80;;;12.20;99.90;;;;;;5015132;28;20497;-52
2022/03/30 11:21:18;;;;;;;19.57;12.40;;;12.30;99.90;;;;;;5015546;28;20437;-52
2022/03/30 11:24:18;;;;;;;17.13;11.70;;;12.30;99.90;;;;;;5015003;28;20451;-52
2022/03/30 11:27:23;;;;;;;19.57;12.17;;;12.30;99.90;;;;;;4993166;28;20451;-52
2022/03/30 11:30:01;;;;;;;21.00;11.30;;;12.30;99.90;;;;;;5015454;28;20514;-53
2022/03/30 11:32:39;;;;;;;16.47;11.57;;;12.30;99.90;;;;;;5014978;28;20478;-54
2022/03/30 11:35:10;;;;;;;14.73;9.67;;;12.30;99.90;;;;;;5015070;28;20521;-53
2022/03/30 11:37:41;;;;;;;19.10;10.77;;;12.30;99.90;;;;;;5014899;28;20491;-53
2022/03/30 11:40:12;;;;;;;19.80;11.70;;;12.40;99.90;;;;;;5015127;28;20431;-53
2022/03/30 11:42:40;;;;;;;21.10;12.07;;;12.50;99.90;;;;;;5014985;28;20451;-53
2022/03/30 11:45:15;;;;;;;22.70;12.73;;;12.70;99.90;;;;;;5014731;28;20447;-53
2022/03/30 11:47:44;;;;;;;22.83;11.67;;;12.30;99.90;;;;;;5014865;28;20458;-53
2022/03/30 11:50:13;;;;;;;22.37;12.40;;;12.40;99.90;;;;;;5014833;28;20447;-53
2022/03/30 11:52:41;;;;;;;25.27;13.00;;;12.40;99.90;;;;;;5014597;28;20451;-53
2022/03/30 11:55:10;;;;;;;19.90;12.47;;;12.50;99.90;;;;;;5014299;28;20489;-53
2022/03/30 11:57:42;;;;;;;17.97;12.77;;;12.50;99.90;;;;;;5014510;28;21007;-53
2022/03/30 12:00:11;;;;;;;24.90;13.80;;;12.50;99.90;;;;;;5014792;28;20457;-53
2022/03/30 12:02:42;;;;;;;22.40;14.60;;;12.50;99.90;;;;;;5014612;28;20474;-53
2022/03/30 12:05:09;;;;;;;20.33;16.20;;;12.60;99.90;;;;;;5014391;28;20461;-53
2022/03/30 12:07:38;;;;;;;21.47;12.77;;;12.50;99.90;;;;;;5014456;28;20555;-53
2022/03/30 12:10:12;;;;;;;23.57;14.00;;;12.30;99.90;;;;;;5014169;28;20862;-54
2022/03/30 12:12:41;;;;;;;25.80;14.77;;;12.40;99.90;;;;;;5014414;28;20510;-53
2022/03/30 12:15:11;;;;;;;15.33;13.17;;;12.50;99.90;;;;;;5014014;28;20455;-53
2022/03/30 12:17:39;;;;;;;22.90;16.00;;;12.50;99.90;;;;;;5014288;28;20502;-53
2022/03/30 12:20:11;;;;;;;22.70;14.10;;;12.60;99.90;;;;;;5014103;28;20483;-53
2022/03/30 12:22:39;;;;;;;27.80;16.27;;;12.40;99.90;;;;;;5013645;28;20490;-53
2022/03/30 12:25:18;;;;;;;23.70;13.60;;;12.40;99.90;;;;;;5013888;28;20883;-53
2022/03/30 12:27:46;;;;;;;22.73;14.53;;;12.30;99.90;;;;;;5013986;28;20825;-53
2022/03/30 12:30:14;;;;;;;20.13;13.67;;;12.40;99.90;;;;;;5013952;28;20447;-53
2022/03/30 12:32:41;;;;;;;17.43;11.93;;;12.20;99.90;;;;;;5013773;28;20538;-53
2022/03/30 12:35:10;;;;;;;14.67;11.13;;;12.30;99.90;;;;;;5014162;28;20455;-53
2022/03/30 12:37:38;;;;;;;8.67;7.80;;;;;;;;;;5013300;28;21004;-53
2022/03/30 12:40:11;;;;;;;7.70;6.93;;;12.00;99.90;;;;;;5013938;28;20484;-53
2022/03/30 12:42:39;;;;;;;7.63;6.87;;;11.90;99.90;;;;;;5014165;28;20523;-53
2022/03/30 12:45:10;;;;;;;7.50;6.50;;;11.60;99.90;;;;;;5013833;28;20450;-53
2022/03/30 12:47:39;;;;;;;8.77;8.00;;;11.50;99.90;;;;;;5013248;28;20467;-53
2022/03/30 12:50:10;;;;;;;8.40;7.47;;;11.40;99.90;;;;;;5013921;28;20450;-53